createdAt,value
2022-11-07T00:00:47.491Z,17.59
2022-11-07T00:03:16.717Z,17.56
2022-11-07T00:05:43.370Z,17.58
2022-11-07T00:08:09.752Z,17.55
2022-11-07T00:10:36.028Z,17.55
2022-11-07T00:13:02.583Z,17.52
2022-11-07T00:15:28.868Z,17.55
2022-11-07T00:17:55.087Z,17.54
2022-11-07T00:20:21.493Z,17.54
2022-11-07T00:22:47.940Z,17.56
2022-11-07T00:25:14.208Z,17.58
2022-11-07T00:27:40.575Z,17.55
2022-11-07T00:30:06.943Z,17.53
2022-11-07T00:32:36.052Z,17.54
2022-11-07T00:35:02.304Z,17.51
2022-11-07T00:37:28.653Z,17.49
2022-11-07T00:39:55.067Z,17.51
2022-11-07T00:42:21.352Z,17.51
2022-11-07T00:44:47.610Z,17.51
2022-11-07T00:47:13.827Z,17.51
2022-11-07T00:49:40.235Z,17.51
2022-11-07T00:52:06.463Z,17.47
2022-11-07T00:54:32.781Z,17.48
2022-11-07T00:56:59.101Z,17.48
2022-11-07T00:59:25.392Z,17.49
2022-11-07T01:01:51.930Z,17.46
2022-11-07T01:04:18.375Z,17.47
2022-11-07T01:06:45.175Z,17.47
2022-11-07T01:09:11.455Z,17.44
2022-11-07T01:11:38.240Z,17.45
2022-11-07T01:14:04.565Z,17.45
2022-11-07T01:16:31.028Z,17.44
2022-11-07T01:18:57.262Z,17.44
2022-11-07T01:21:23.510Z,17.44
2022-11-07T01:23:49.791Z,17.43
2022-11-07T01:26:16.011Z,17.44
2022-11-07T01:28:42.317Z,17.42
2022-11-07T01:31:08.677Z,17.42
2022-11-07T01:33:34.987Z,17.39
2022-11-07T01:36:05.897Z,17.41
2022-11-07T01:38:32.587Z,17.41
2022-11-07T01:40:58.987Z,17.42
2022-11-07T01:43:25.263Z,17.41
2022-11-07T01:45:51.516Z,17.40
2022-11-07T01:48:17.876Z,17.39
2022-11-07T01:50:44.264Z,17.38
2022-11-07T01:53:10.627Z,17.38
2022-11-07T01:55:36.916Z,17.39
2022-11-07T01:58:03.204Z,17.36
2022-11-07T02:00:29.452Z,17.39
2022-11-07T02:02:55.885Z,17.38
2022-11-07T02:05:22.296Z,17.36
2022-11-07T02:07:48.648Z,17.36
2022-11-07T02:10:15.276Z,17.36
2022-11-07T02:12:41.631Z,17.37
2022-11-07T02:15:07.899Z,17.35
2022-11-07T02:17:36.932Z,17.36
2022-11-07T02:20:03.239Z,17.37
2022-11-07T02:22:29.566Z,17.35
2022-11-07T02:24:55.817Z,17.36
2022-11-07T02:27:22.095Z,17.36
2022-11-07T02:29:48.415Z,17.35
2022-11-07T02:32:14.818Z,17.36
2022-11-07T02:34:41.095Z,17.33
2022-11-07T02:37:07.368Z,17.34
2022-11-07T02:39:33.810Z,17.33
2022-11-07T02:42:00.121Z,17.31
2022-11-07T02:44:26.407Z,17.33
2022-11-07T02:46:52.636Z,17.32
2022-11-07T02:49:19.078Z,17.31
2022-11-07T02:51:45.615Z,17.34
2022-11-07T02:54:12.001Z,17.30
2022-11-07T02:56:38.290Z,17.34
2022-11-07T02:59:04.582Z,17.32
2022-11-07T03:01:30.878Z,17.28
2022-11-07T03:03:57.244Z,17.30
2022-11-07T03:06:23.582Z,17.28
2022-11-07T03:08:49.827Z,17.30
2022-11-07T03:11:16.111Z,17.28
2022-11-07T03:13:42.473Z,17.29
2022-11-07T03:16:08.935Z,17.31
2022-11-07T03:18:35.170Z,17.28
2022-11-07T03:21:01.527Z,17.26
2022-11-07T03:23:27.768Z,17.25
2022-11-07T03:25:54.099Z,17.29
2022-11-07T03:28:20.387Z,17.28
2022-11-07T03:30:46.769Z,17.32
2022-11-07T03:33:13.437Z,17.29
2022-11-07T03:35:39.920Z,17.31
2022-11-07T03:38:06.490Z,17.29
2022-11-07T03:40:33.078Z,17.28
2022-11-07T03:42:59.344Z,17.25
2022-11-07T03:45:25.648Z,17.28
2022-11-07T03:47:52.124Z,17.29
2022-11-07T03:50:18.452Z,17.27
2022-11-07T03:52:44.712Z,17.26
2022-11-07T03:55:11.075Z,17.29
2022-11-07T03:57:37.377Z,17.25
2022-11-07T04:00:03.657Z,17.27
2022-11-07T04:02:30.129Z,17.27
2022-11-07T04:04:56.528Z,17.26
2022-11-07T04:07:22.880Z,17.29
2022-11-07T04:09:49.251Z,17.27
2022-11-07T04:12:15.531Z,17.25
2022-11-07T04:14:41.884Z,17.23
2022-11-07T04:17:08.336Z,17.23
2022-11-07T04:19:34.792Z,17.25
2022-11-07T04:22:01.084Z,17.27
2022-11-07T04:24:27.319Z,17.27
2022-11-07T04:26:53.557Z,17.24
2022-11-07T04:29:19.831Z,17.23
2022-11-07T04:31:46.064Z,17.25
2022-11-07T04:34:12.356Z,17.21
2022-11-07T04:36:38.738Z,17.21
2022-11-07T04:39:05.188Z,17.21
2022-11-07T04:41:31.658Z,17.22
2022-11-07T04:43:57.952Z,17.23
2022-11-07T04:46:24.350Z,17.22
2022-11-07T04:48:50.628Z,17.20
2022-11-07T04:51:16.914Z,17.21
2022-11-07T04:53:43.222Z,17.21
2022-11-07T04:56:09.462Z,17.22
2022-11-07T04:58:35.808Z,17.20
2022-11-07T05:01:02.063Z,17.19
2022-11-07T05:03:28.480Z,17.19
2022-11-07T05:05:54.825Z,17.19
2022-11-07T05:08:21.135Z,17.22
2022-11-07T05:10:47.540Z,17.16
2022-11-07T05:13:14.070Z,17.17
2022-11-07T05:15:40.572Z,17.18
2022-11-07T05:18:07.021Z,17.16
2022-11-07T05:20:33.248Z,17.19
2022-11-07T05:22:59.592Z,17.17
2022-11-07T05:25:25.859Z,17.15
2022-11-07T05:27:52.196Z,17.17
2022-11-07T05:30:18.558Z,17.15
2022-11-07T05:32:44.841Z,17.19
2022-11-07T05:35:11.165Z,17.17
2022-11-07T05:37:37.726Z,17.15
2022-11-07T05:40:04.023Z,17.16
2022-11-07T05:42:30.300Z,17.12
2022-11-07T05:44:56.544Z,17.11
2022-11-07T05:47:22.827Z,17.13
2022-11-07T05:49:49.094Z,17.12
2022-11-07T05:52:15.394Z,17.15
2022-11-07T05:54:41.689Z,17.11
2022-11-07T05:57:07.983Z,17.15
2022-11-07T05:59:34.247Z,17.12
2022-11-07T06:02:00.584Z,17.11
2022-11-07T06:04:27.043Z,17.09
2022-11-07T06:06:53.359Z,17.09
2022-11-07T06:09:19.599Z,17.08
2022-11-07T06:11:45.920Z,17.09
2022-11-07T06:14:12.391Z,17.10
2022-11-07T06:16:38.689Z,17.08
2022-11-07T06:19:05.055Z,17.09
2022-11-07T06:21:31.331Z,17.10
2022-11-07T06:23:57.688Z,17.09
2022-11-07T06:26:24.016Z,17.10
2022-11-07T06:28:50.345Z,17.09
2022-11-07T06:31:16.606Z,17.07
2022-11-07T06:33:42.941Z,17.09
2022-11-07T06:36:09.241Z,17.09
2022-11-07T06:38:35.512Z,17.11
2022-11-07T06:41:01.781Z,17.09
2022-11-07T06:43:32.749Z,17.09
2022-11-07T06:45:59.996Z,17.09
2022-11-07T06:48:26.411Z,17.10
2022-11-07T06:50:52.927Z,17.08
2022-11-07T06:53:19.663Z,17.11
2022-11-07T06:55:46.354Z,17.09
2022-11-07T06:58:12.664Z,17.09
2022-11-07T07:00:39.148Z,17.05
2022-11-07T07:03:05.611Z,17.08
2022-11-07T07:05:32.028Z,17.07
2022-11-07T07:07:58.369Z,17.04
2022-11-07T07:10:24.814Z,17.05
2022-11-07T07:12:51.291Z,17.04
2022-11-07T07:15:17.588Z,17.04
2022-11-07T07:17:43.976Z,17.06
2022-11-07T07:20:10.246Z,17.05
2022-11-07T07:22:36.498Z,17.05
2022-11-07T07:25:02.869Z,17.06
2022-11-07T07:27:29.213Z,17.03
2022-11-07T07:29:55.516Z,17.02
2022-11-07T07:32:21.769Z,17.00
2022-11-07T07:34:48.070Z,17.00
2022-11-07T07:37:14.359Z,17.00
2022-11-07T07:39:40.580Z,17.00
2022-11-07T07:42:06.824Z,17.02
2022-11-07T07:44:33.272Z,17.02
2022-11-07T07:46:59.535Z,17.02
2022-11-07T07:49:25.888Z,17.02
2022-11-07T07:51:52.272Z,17.00
2022-11-07T07:54:18.569Z,16.99
2022-11-07T07:56:45.018Z,17.00
2022-11-07T07:59:11.394Z,17.01
2022-11-07T08:01:37.953Z,17.01
2022-11-07T08:04:04.291Z,16.97
2022-11-07T08:06:30.779Z,16.99
2022-11-07T08:08:57.075Z,16.96
2022-11-07T08:11:23.453Z,16.96
2022-11-07T08:13:49.799Z,16.96
2022-11-07T08:16:16.175Z,16.96
2022-11-07T08:18:42.510Z,16.94
2022-11-07T08:21:08.842Z,16.96
2022-11-07T08:23:35.148Z,16.95
2022-11-07T08:26:01.491Z,16.91
2022-11-07T08:28:29.477Z,16.88
2022-11-07T08:30:55.849Z,16.88
2022-11-07T08:33:22.195Z,16.88
2022-11-07T08:35:48.540Z,16.93
2022-11-07T08:38:15.008Z,16.92
2022-11-07T08:40:41.493Z,16.90
2022-11-07T08:43:07.959Z,16.88
2022-11-07T08:45:34.402Z,16.88
2022-11-07T08:48:00.625Z,16.89
2022-11-07T08:50:26.888Z,16.89
2022-11-07T08:52:55.836Z,16.87
2022-11-07T08:55:24.555Z,16.86
2022-11-07T08:57:50.778Z,16.85
2022-11-07T09:00:17.200Z,16.84
2022-11-07T09:05:30.204Z,16.84
2022-11-07T09:07:56.432Z,16.83
2022-11-07T09:10:22.754Z,16.84
2022-11-07T09:12:49.057Z,16.83
2022-11-07T09:15:15.340Z,16.85
2022-11-07T09:17:41.551Z,16.82
2022-11-07T09:20:07.811Z,16.83
2022-11-07T09:22:34.165Z,16.82
2022-11-07T09:25:00.508Z,16.83
2022-11-07T09:27:26.787Z,16.83
2022-11-07T09:29:53.064Z,16.83
2022-11-07T09:32:43.469Z,16.80
2022-11-07T09:35:05.860Z,16.79
2022-11-07T09:37:32.136Z,16.79
2022-11-07T09:39:58.547Z,16.79
2022-11-07T09:42:24.836Z,16.80
2022-11-07T09:44:51.135Z,16.81
2022-11-07T09:47:17.641Z,16.78
2022-11-07T09:49:43.969Z,16.78
2022-11-07T09:52:10.257Z,16.74
2022-11-07T09:54:36.476Z,16.78
2022-11-07T09:57:02.867Z,16.79
2022-11-07T09:59:29.249Z,16.74
2022-11-07T10:01:55.667Z,16.75
2022-11-07T10:04:25.288Z,16.77
2022-11-07T10:06:52.623Z,16.73
2022-11-07T10:09:18.920Z,16.74
2022-11-07T10:11:45.179Z,16.71
2022-11-07T10:14:11.602Z,16.74
2022-11-07T10:16:37.939Z,16.72
2022-11-07T10:19:04.337Z,16.75
2022-11-07T10:21:37.538Z,16.73
2022-11-07T10:24:04.675Z,16.72
2022-11-07T10:26:30.977Z,16.73
2022-11-07T10:28:57.408Z,16.73
2022-11-07T10:31:23.882Z,16.71
2022-11-07T10:33:50.118Z,16.72
2022-11-07T10:36:16.502Z,16.72
2022-11-07T10:38:42.920Z,16.71
2022-11-07T10:41:09.246Z,16.73
2022-11-07T10:43:35.547Z,16.73
2022-11-07T10:46:01.819Z,16.71
2022-11-07T10:48:28.184Z,16.70
2022-11-07T10:50:54.448Z,16.70
2022-11-07T10:53:20.764Z,16.70
2022-11-07T10:55:47.137Z,16.70
2022-11-07T10:58:13.807Z,16.70
2022-11-07T11:00:40.417Z,16.70
2022-11-07T11:03:06.765Z,16.70
2022-11-07T11:05:33.045Z,16.72
2022-11-07T11:07:59.529Z,16.70
2022-11-07T11:10:25.815Z,16.71
2022-11-07T11:12:52.327Z,16.69
2022-11-07T11:15:18.616Z,16.69
2022-11-07T11:17:44.886Z,16.69
2022-11-07T11:20:11.260Z,16.67
2022-11-07T11:22:37.755Z,16.69
2022-11-07T11:25:04.055Z,16.67
2022-11-07T11:27:30.320Z,16.69
2022-11-07T11:29:56.587Z,16.67
2022-11-07T11:32:23.057Z,16.67
2022-11-07T11:34:49.315Z,16.67
2022-11-07T11:37:15.571Z,16.66
2022-11-07T11:39:41.892Z,16.67
2022-11-07T11:42:08.244Z,16.66
2022-11-07T11:44:34.560Z,16.69
2022-11-07T11:47:00.847Z,16.66
2022-11-07T11:49:27.294Z,16.67
2022-11-07T11:51:53.615Z,16.69
2022-11-07T11:54:19.899Z,16.68
2022-11-07T11:56:47.183Z,16.66
2022-11-07T11:59:13.434Z,16.67
2022-11-07T12:01:39.871Z,16.66
2022-11-07T12:04:08.071Z,16.68
2022-11-07T12:06:34.855Z,16.67
2022-11-07T12:09:01.167Z,16.68
2022-11-07T12:11:27.503Z,16.66
2022-11-07T12:13:53.752Z,16.66
2022-11-07T12:16:20.000Z,16.66
2022-11-07T12:18:46.301Z,16.65
2022-11-07T12:21:12.564Z,16.66
2022-11-07T12:23:38.890Z,16.66
2022-11-07T12:26:05.127Z,16.66
2022-11-07T12:28:31.394Z,16.64
2022-11-07T12:30:57.798Z,16.66
2022-11-07T12:33:24.168Z,16.66
2022-11-07T12:35:50.473Z,16.66
2022-11-07T12:38:16.961Z,16.66
2022-11-07T12:40:43.331Z,16.66
2022-11-07T12:43:09.554Z,16.65
2022-11-07T12:45:35.871Z,16.66
2022-11-07T12:48:02.358Z,16.66
2022-11-07T12:50:28.766Z,16.65
2022-11-07T12:52:55.074Z,16.65
2022-11-07T12:55:21.485Z,16.67
2022-11-07T12:57:47.781Z,16.65
2022-11-07T13:00:14.208Z,16.66
2022-11-07T13:02:40.543Z,16.66
2022-11-07T13:05:06.842Z,16.66
2022-11-07T13:07:33.186Z,16.65
2022-11-07T13:09:59.481Z,16.65
2022-11-07T13:12:25.985Z,16.65
2022-11-07T13:14:52.253Z,16.65
2022-11-07T13:17:18.503Z,16.66
2022-11-07T13:19:44.938Z,16.66
2022-11-07T13:22:11.329Z,16.65
2022-11-07T13:24:37.826Z,16.66
2022-11-07T13:27:04.107Z,16.67
2022-11-07T13:29:30.545Z,16.67
2022-11-07T13:31:57.105Z,16.65
2022-11-07T13:34:23.415Z,16.66
2022-11-07T13:36:49.786Z,16.64
2022-11-07T13:39:16.194Z,16.64
2022-11-07T13:41:42.558Z,16.65
2022-11-07T13:44:09.099Z,16.65
2022-11-07T13:46:35.361Z,16.64
2022-11-07T13:49:01.768Z,16.62
2022-11-07T13:51:28.071Z,16.64
2022-11-07T13:53:54.481Z,16.65
2022-11-07T13:56:20.802Z,16.63
2022-11-07T13:58:47.191Z,16.62
2022-11-07T14:01:13.588Z,16.62
2022-11-07T14:03:39.872Z,16.64
2022-11-07T14:06:06.512Z,16.64
2022-11-07T14:08:32.799Z,16.63
2022-11-07T14:10:59.351Z,16.62
2022-11-07T14:15:54.783Z,16.62
2022-11-07T14:18:21.204Z,16.63
2022-11-07T14:20:47.953Z,16.63
2022-11-07T14:23:14.296Z,16.63
2022-11-07T14:25:40.656Z,16.63
2022-11-07T14:28:06.987Z,16.63
2022-11-07T14:30:33.296Z,16.63
2022-11-07T14:32:59.557Z,16.62
2022-11-07T14:35:25.918Z,16.62
2022-11-07T14:37:52.158Z,16.62
2022-11-07T14:40:18.527Z,16.63
2022-11-07T14:42:44.825Z,16.61
2022-11-07T14:45:11.091Z,16.61
2022-11-07T14:47:37.407Z,16.62
2022-11-07T14:50:03.939Z,16.61
2022-11-07T14:52:30.294Z,16.62
2022-11-07T14:54:56.539Z,16.61
2022-11-07T14:57:22.821Z,16.64
2022-11-07T14:59:49.223Z,16.62
2022-11-07T15:02:15.676Z,16.62
2022-11-07T15:04:42.254Z,16.61
2022-11-07T15:07:08.652Z,16.63
2022-11-07T15:09:34.977Z,16.63
2022-11-07T15:12:01.335Z,16.60
2022-11-07T15:14:27.673Z,16.62
2022-11-07T15:16:53.964Z,16.63
2022-11-07T15:19:20.216Z,16.58
2022-11-07T15:21:46.443Z,16.61
2022-11-07T15:24:15.902Z,16.61
2022-11-07T15:26:42.321Z,16.63
2022-11-07T15:29:08.825Z,16.60
2022-11-07T15:31:35.112Z,16.60
2022-11-07T15:34:01.484Z,16.62
2022-11-07T15:36:27.957Z,16.61
2022-11-07T15:38:54.253Z,16.63
2022-11-07T15:41:20.512Z,16.61
2022-11-07T15:43:46.755Z,16.60
2022-11-07T15:46:13.101Z,16.61
2022-11-07T15:48:41.392Z,16.64
2022-11-07T15:51:07.827Z,16.65
2022-11-07T15:53:34.160Z,16.66
2022-11-07T15:56:00.507Z,16.64
2022-11-07T15:58:26.806Z,16.62
2022-11-07T16:00:53.116Z,16.65
2022-11-07T16:03:19.383Z,16.64
2022-11-07T16:05:46.046Z,16.61
2022-11-07T16:08:12.397Z,16.63
2022-11-07T16:10:38.769Z,16.61
2022-11-07T16:13:05.360Z,16.64
2022-11-07T16:15:31.658Z,16.64
2022-11-07T16:17:57.968Z,16.63
2022-11-07T16:20:24.290Z,16.63
2022-11-07T16:22:50.595Z,16.62
2022-11-07T16:25:21.335Z,16.63
2022-11-07T16:27:48.552Z,16.63
2022-11-07T16:30:14.838Z,16.63
2022-11-07T16:32:41.138Z,16.63
2022-11-07T16:35:07.440Z,16.65
2022-11-07T16:37:33.806Z,16.64
2022-11-07T16:40:00.088Z,16.61
2022-11-07T16:42:26.561Z,16.62
2022-11-07T16:44:52.939Z,16.66
2022-11-07T16:47:19.312Z,16.62
2022-11-07T16:49:45.628Z,16.62
2022-11-07T16:52:12.311Z,16.62
2022-11-07T16:54:38.609Z,16.62
2022-11-07T16:57:04.903Z,16.62
2022-11-07T16:59:31.157Z,16.58
2022-11-07T17:01:57.751Z,16.62
2022-11-07T17:04:24.124Z,16.63
2022-11-07T17:06:50.416Z,16.63
2022-11-07T17:09:16.992Z,16.67
2022-11-07T17:11:43.245Z,16.62
2022-11-07T17:14:09.932Z,16.61
2022-11-07T17:16:36.383Z,16.63
2022-11-07T17:19:02.633Z,16.59
2022-11-07T17:21:28.940Z,16.65
2022-11-07T17:23:55.189Z,16.73
2022-11-07T17:26:21.831Z,16.85
2022-11-07T17:28:48.264Z,17.01
2022-11-07T17:31:14.729Z,17.11
2022-11-07T17:33:41.085Z,17.19
2022-11-07T17:41:18.461Z,17.42
2022-11-07T17:43:44.793Z,17.47
2022-11-07T17:46:11.263Z,17.52
2022-11-07T17:48:37.481Z,17.59
2022-11-07T17:51:03.955Z,17.68
2022-11-07T17:53:30.208Z,17.70
2022-11-07T17:55:56.463Z,17.74
2022-11-07T17:58:22.785Z,17.77
2022-11-07T18:00:49.158Z,17.78
2022-11-07T18:05:50.639Z,17.89
2022-11-07T18:08:25.267Z,17.95
2022-11-07T18:11:03.127Z,18.01
2022-11-07T18:13:29.596Z,18.09
2022-11-07T18:15:55.917Z,18.12
2022-11-07T18:20:55.398Z,18.22
2022-11-07T18:23:21.648Z,18.28
2022-11-07T18:25:47.908Z,18.32
2022-11-07T18:28:14.432Z,18.35
2022-11-07T18:30:40.979Z,18.41
2022-11-07T18:33:07.246Z,18.48
2022-11-07T18:35:33.557Z,18.55
2022-11-07T18:38:00.232Z,18.61
2022-11-07T18:40:26.649Z,18.67
2022-11-07T18:42:53.108Z,18.74
2022-11-07T18:45:19.676Z,18.79
2022-11-07T18:47:45.987Z,18.84
2022-11-07T18:50:12.356Z,18.91
2022-11-07T18:52:38.643Z,18.95
2022-11-07T18:55:05.008Z,19.00
2022-11-07T18:57:31.388Z,19.07
2022-11-07T18:59:57.673Z,19.14
2022-11-07T19:02:24.046Z,19.19
2022-11-07T19:04:50.568Z,19.25
2022-11-07T19:07:16.921Z,19.24
2022-11-07T19:09:43.303Z,19.28
2022-11-07T19:12:09.644Z,19.36
2022-11-07T19:17:17.512Z,19.46
2022-11-07T19:19:44.167Z,19.51
2022-11-07T19:22:10.521Z,19.59
2022-11-07T19:24:36.972Z,19.60
2022-11-07T19:27:03.309Z,19.58
2022-11-07T19:29:29.871Z,19.60
2022-11-07T19:31:56.204Z,19.65
2022-11-07T19:34:22.627Z,19.66
2022-11-07T19:36:49.092Z,19.74
2022-11-07T19:39:15.402Z,19.76
2022-11-07T19:41:41.719Z,19.76
2022-11-07T19:44:08.172Z,19.78
2022-11-07T19:46:34.457Z,19.86
2022-11-07T19:49:00.786Z,19.92
2022-11-07T19:51:27.227Z,19.95
2022-11-07T19:53:53.484Z,19.97
2022-11-07T19:56:19.796Z,19.97
2022-11-07T19:58:46.045Z,19.98
2022-11-07T20:01:12.459Z,19.96
2022-11-07T20:03:39.025Z,20.01
2022-11-07T20:06:05.337Z,20.06
2022-11-07T20:08:31.578Z,20.11
2022-11-07T20:10:57.979Z,20.10
2022-11-07T20:13:24.288Z,20.14
2022-11-07T20:18:34.803Z,20.19
2022-11-07T20:21:01.116Z,20.19
2022-11-07T20:23:27.681Z,20.24
2022-11-07T20:25:54.199Z,20.27
2022-11-07T20:28:20.527Z,20.33
2022-11-07T20:33:21.948Z,20.39
2022-11-07T20:35:48.203Z,20.39
2022-11-07T20:38:14.920Z,20.41
2022-11-07T20:40:41.224Z,20.43
2022-11-07T20:43:07.835Z,20.49
2022-11-07T20:45:34.154Z,20.50
2022-11-07T20:48:00.534Z,20.50
2022-11-07T20:50:26.834Z,20.47
2022-11-07T20:52:57.637Z,20.53
2022-11-07T20:55:26.374Z,20.59
2022-11-07T20:57:52.711Z,20.59
2022-11-07T21:00:19.294Z,20.61
2022-11-07T21:02:45.538Z,20.60
2022-11-07T21:05:17.637Z,20.63
2022-11-07T21:07:44.448Z,20.67
2022-11-07T21:10:10.779Z,20.68
2022-11-07T21:12:37.037Z,20.68
2022-11-07T21:15:03.316Z,20.72
2022-11-07T21:17:29.793Z,20.70
2022-11-07T21:19:56.071Z,20.62
2022-11-07T21:22:26.630Z,20.70
2022-11-07T21:24:55.427Z,20.74
2022-11-07T21:27:21.745Z,20.72
2022-11-07T21:29:48.301Z,20.75
2022-11-07T21:32:14.626Z,20.79
2022-11-07T21:34:40.915Z,20.81
2022-11-07T21:37:07.207Z,20.85
2022-11-07T21:39:33.484Z,20.87
2022-11-07T21:41:59.817Z,20.90
2022-11-07T21:44:26.183Z,20.95
2022-11-07T21:46:52.447Z,21.01
2022-11-07T21:49:18.735Z,21.00
2022-11-07T21:51:44.975Z,21.04
2022-11-07T21:54:11.446Z,21.08
2022-11-07T21:56:37.904Z,21.13
2022-11-07T21:59:04.231Z,21.04
2022-11-07T22:01:30.755Z,21.07
2022-11-07T22:04:13.378Z,21.10
2022-11-07T22:06:40.185Z,21.15
2022-11-07T22:09:06.511Z,21.17
2022-11-07T22:11:32.832Z,21.20
2022-11-07T22:13:59.133Z,21.20
2022-11-07T22:16:25.862Z,21.23
2022-11-07T22:18:52.396Z,21.24
2022-11-07T22:21:18.653Z,21.27
2022-11-07T22:23:44.946Z,21.31
2022-11-07T22:26:11.305Z,21.33
2022-11-07T22:28:41.500Z,21.34
2022-11-07T22:31:10.698Z,21.37
2022-11-07T22:33:36.987Z,21.40
2022-11-07T22:36:03.435Z,21.42
2022-11-07T22:38:31.988Z,21.48
2022-11-07T22:40:58.305Z,21.50
2022-11-07T22:43:24.610Z,21.53
2022-11-07T22:45:51.002Z,21.53
2022-11-07T22:48:17.278Z,21.55
2022-11-07T22:50:43.588Z,21.57
2022-11-07T22:53:10.000Z,21.59
2022-11-07T22:55:36.316Z,21.58
2022-11-07T22:58:02.627Z,21.52
2022-11-07T23:00:28.933Z,21.44
2022-11-07T23:02:55.601Z,21.36
2022-11-07T23:05:21.954Z,21.31
2022-11-07T23:07:48.292Z,21.27
2022-11-07T23:10:15.646Z,21.23
2022-11-07T23:12:42.521Z,21.19
2022-11-07T23:15:08.851Z,21.14
2022-11-07T23:17:35.267Z,21.11
2022-11-07T23:20:01.563Z,21.07
2022-11-07T23:22:32.115Z,21.02
2022-11-07T23:24:58.822Z,21.00
2022-11-07T23:27:25.320Z,20.97
2022-11-07T23:29:51.650Z,20.93
2022-11-07T23:32:17.969Z,20.89
2022-11-07T23:34:44.244Z,20.88
2022-11-07T23:37:10.551Z,20.83
2022-11-07T23:39:36.853Z,20.81
2022-11-07T23:42:03.272Z,20.77
2022-11-07T23:44:29.697Z,20.75
2022-11-07T23:46:56.151Z,20.73
2022-11-07T23:49:22.700Z,20.69
2022-11-07T23:51:48.988Z,20.65
2022-11-07T23:54:15.283Z,20.62
2022-11-07T23:56:41.629Z,20.59
2022-11-07T23:59:07.873Z,20.56
